Aviation Digital Data Service (ADDS)

Output produced by TAFs form (0001 UTC 28 May 2016)
found at http://www.aviationweather.gov/adds/tafs/
 
KPOU 272326Z 2800/2824 18005KT P6SM SCT045 SCT100 
     FM280400 00000KT 4SM BR SCT040 SCT080 
     TEMPO 2807/2811 1 1/2SM BR 
     FM281300 18005KT P6SM SCT045 SCT200